BAW235 EGKK-EDDM
Flight info
| Callsign | BAW235 |
|---|---|
| Flight time | 1h 58m |
| Altitude | 23000 |
| Route | DVR L9 KONAN/N0484F410 UL607 SPI DCT MOVUM T109 HAREM/N0406F230 T104 ROKIL ROKIL1B |
| Aircraft | B772/H-SDE2E3FGHIJ5LORVWXY/LB1D1 |
Departure
| Time | 2026-05-05 14:32 |
|---|---|
| Airport | London Gatwick Airport (EGKK) |
Arrival
| Time | 2026-05-05 16:31 |
|---|---|
| Airport | Munich Airport (EDDM) |
| Time | Latitude | Longitude | Altitude | Speed | Heading |
|---|---|---|---|---|---|
| 2026-05-05 13:42 | 51.15825 | -0.17631 | 212 ft | 0 kts | 347° |
| 2026-05-05 14:17 | 51.15811 | -0.17625 | 218 ft | 2 kts | 341° |
| 2026-05-05 14:17 | 51.15796 | -0.17616 | 215 ft | 2 kts | 335° |
| 2026-05-05 14:18 | 51.15781 | -0.17604 | 218 ft | 2 kts | 323° |
| 2026-05-05 14:18 | 51.15769 | -0.17586 | 224 ft | 2 kts | 306° |
| 2026-05-05 14:18 | 51.15761 | -0.17563 | 214 ft | 2 kts | 284° |
| 2026-05-05 14:18 | 51.15759 | -0.17537 | 220 ft | 2 kts | 267° |
| 2026-05-05 14:19 | 51.15760 | -0.17518 | 217 ft | 1 kts | 260° |
| 2026-05-05 14:19 | 51.15761 | -0.17514 | 218 ft | 0 kts | 259° |
| 2026-05-05 14:24 | 51.15757 | -0.17541 | 212 ft | 9 kts | 259° |
| 2026-05-05 14:25 | 51.15743 | -0.17648 | 217 ft | 10 kts | 258° |
| 2026-05-05 14:25 | 51.15728 | -0.17754 | 213 ft | 10 kts | 256° |
| 2026-05-05 14:25 | 51.15713 | -0.17860 | 211 ft | 10 kts | 258° |
| 2026-05-05 14:25 | 51.15693 | -0.18007 | 217 ft | 18 kts | 258° |
| 2026-05-05 14:26 | 51.15661 | -0.18247 | 218 ft | 25 kts | 257° |
| 2026-05-05 14:26 | 51.15624 | -0.18518 | 215 ft | 25 kts | 258° |
| 2026-05-05 14:26 | 51.15589 | -0.18756 | 221 ft | 18 kts | 251° |
| 2026-05-05 14:26 | 51.15481 | -0.18810 | 215 ft | 18 kts | 170° |
| 2026-05-05 14:27 | 51.15359 | -0.18765 | 215 ft | 18 kts | 168° |
| 2026-05-05 14:27 | 51.15237 | -0.18723 | 217 ft | 18 kts | 167° |
| 2026-05-05 14:27 | 51.15129 | -0.18769 | 220 ft | 18 kts | 243° |
| 2026-05-05 14:27 | 51.15099 | -0.18962 | 221 ft | 18 kts | 258° |
| 2026-05-05 14:28 | 51.15074 | -0.19157 | 217 ft | 18 kts | 257° |
| 2026-05-05 14:28 | 51.15046 | -0.19352 | 215 ft | 18 kts | 257° |
| 2026-05-05 14:28 | 51.15018 | -0.19546 | 217 ft | 18 kts | 257° |
| 2026-05-05 14:28 | 51.14991 | -0.19741 | 211 ft | 18 kts | 258° |
| 2026-05-05 14:29 | 51.14964 | -0.19936 | 212 ft | 18 kts | 258° |
| 2026-05-05 14:29 | 51.14938 | -0.20130 | 216 ft | 18 kts | 258° |
| 2026-05-05 14:29 | 51.14911 | -0.20325 | 218 ft | 18 kts | 257° |
| 2026-05-05 14:29 | 51.14883 | -0.20524 | 217 ft | 20 kts | 258° |
| 2026-05-05 14:30 | 51.14850 | -0.20771 | 214 ft | 25 kts | 257° |
| 2026-05-05 14:30 | 51.14807 | -0.21074 | 215 ft | 30 kts | 257° |
| 2026-05-05 14:30 | 51.14765 | -0.21326 | 213 ft | 14 kts | 257° |
| 2026-05-05 14:30 | 51.14689 | -0.21381 | 216 ft | 14 kts | 150° |
| 2026-05-05 14:31 | 51.14597 | -0.21323 | 215 ft | 14 kts | 162° |
| 2026-05-05 14:31 | 51.14527 | -0.21221 | 220 ft | 14 kts | 110° |
| 2026-05-05 14:31 | 51.14532 | -0.21079 | 217 ft | 0 kts | 78° |
| 2026-05-05 14:32 | 51.14587 | -0.20680 | 220 ft | 87 kts | 77° |
| 2026-05-05 14:32 | 51.14799 | -0.19213 | 317 ft | 173 kts | 76° |
| 2026-05-05 14:32 | 51.15039 | -0.17324 | 1709 ft | 168 kts | 82° |
| 2026-05-05 14:33 | 51.15096 | -0.15387 | 2886 ft | 188 kts | 85° |
| 2026-05-05 14:33 | 51.15126 | -0.13167 | 3274 ft | 214 kts | 86° |
| 2026-05-05 14:33 | 51.15164 | -0.10691 | 3801 ft | 232 kts | 86° |
| 2026-05-05 14:33 | 51.15211 | -0.07978 | 4304 ft | 252 kts | 87° |
| 2026-05-05 14:34 | 51.15266 | -0.05151 | 5197 ft | 259 kts | 86° |
| 2026-05-05 14:34 | 51.15326 | -0.02264 | 6122 ft | 265 kts | 86° |
| 2026-05-05 14:34 | 51.15395 | 0.00686 | 7065 ft | 270 kts | 86° |
| 2026-05-05 14:34 | 51.15469 | 0.03716 | 7929 ft | 275 kts | 86° |
| 2026-05-05 14:35 | 51.15546 | 0.06783 | 8822 ft | 280 kts | 86° |
| 2026-05-05 14:35 | 51.15627 | 0.09909 | 9716 ft | 285 kts | 86° |
| 2026-05-05 14:35 | 51.15709 | 0.13099 | 10561 ft | 289 kts | 87° |
| 2026-05-05 14:35 | 51.15793 | 0.16301 | 11483 ft | 290 kts | 87° |
| 2026-05-05 14:36 | 51.15876 | 0.19518 | 12471 ft | 291 kts | 86° |
| 2026-05-05 14:36 | 51.15959 | 0.22739 | 13478 ft | 293 kts | 87° |
| 2026-05-05 14:36 | 51.16044 | 0.26008 | 14359 ft | 298 kts | 87° |
| 2026-05-05 14:36 | 51.16128 | 0.29334 | 15242 ft | 301 kts | 86° |
| 2026-05-05 14:37 | 51.16212 | 0.32677 | 16145 ft | 304 kts | 87° |
| 2026-05-05 14:37 | 51.16297 | 0.36075 | 16972 ft | 310 kts | 87° |
| 2026-05-05 14:37 | 51.16383 | 0.39542 | 17806 ft | 316 kts | 87° |
| 2026-05-05 14:37 | 51.16469 | 0.43073 | 18592 ft | 322 kts | 87° |
| 2026-05-05 14:38 | 51.16555 | 0.46676 | 19336 ft | 327 kts | 87° |
| 2026-05-05 14:38 | 51.16630 | 0.50331 | 20026 ft | 334 kts | 89° |
| 2026-05-05 14:38 | 51.16643 | 0.54055 | 20767 ft | 338 kts | 90° |
| 2026-05-05 14:38 | 51.16633 | 0.57822 | 21514 ft | 342 kts | 90° |
| 2026-05-05 14:39 | 51.16619 | 0.61630 | 22237 ft | 346 kts | 90° |
| 2026-05-05 14:39 | 51.16605 | 0.65481 | 22911 ft | 351 kts | 91° |
| 2026-05-05 14:39 | 51.16593 | 0.69390 | 23583 ft | 355 kts | 91° |
| 2026-05-05 14:39 | 51.16582 | 0.73349 | 24169 ft | 358 kts | 91° |
| 2026-05-05 14:40 | 51.16572 | 0.77320 | 24776 ft | 360 kts | 91° |
| 2026-05-05 14:40 | 51.16561 | 0.81328 | 25396 ft | 362 kts | 92° |
| 2026-05-05 14:40 | 51.16550 | 0.85348 | 25994 ft | 365 kts | 92° |
| 2026-05-05 14:40 | 51.16538 | 0.89403 | 26597 ft | 367 kts | 92° |
| 2026-05-05 14:41 | 51.16524 | 0.93486 | 27184 ft | 370 kts | 92° |
| 2026-05-05 14:41 | 51.16509 | 0.97609 | 27677 ft | 376 kts | 94° |
| 2026-05-05 14:41 | 51.16491 | 1.01865 | 28222 ft | 381 kts | 93° |
| 2026-05-05 14:41 | 51.16472 | 1.06098 | 28842 ft | 383 kts | 92° |
| 2026-05-05 14:42 | 51.16452 | 1.10347 | 29473 ft | 385 kts | 92° |
| 2026-05-05 14:42 | 51.16431 | 1.14638 | 30059 ft | 388 kts | 93° |
| 2026-05-05 14:42 | 51.16407 | 1.18952 | 30529 ft | 392 kts | 92° |
| 2026-05-05 14:42 | 51.16381 | 1.23321 | 30991 ft | 396 kts | 92° |
| 2026-05-05 14:43 | 51.16355 | 1.27724 | 31460 ft | 399 kts | 93° |
| 2026-05-05 14:43 | 51.16326 | 1.32161 | 31923 ft | 403 kts | 92° |
| 2026-05-05 14:43 | 51.16277 | 1.36633 | 32385 ft | 405 kts | 95° |
| 2026-05-05 14:43 | 51.16100 | 1.41134 | 32832 ft | 408 kts | 97° |
| 2026-05-05 14:44 | 51.15877 | 1.45665 | 33214 ft | 413 kts | 97° |
| 2026-05-05 14:44 | 51.15639 | 1.50252 | 33599 ft | 417 kts | 97° |
| 2026-05-05 14:44 | 51.15400 | 1.54868 | 34022 ft | 420 kts | 97° |
| 2026-05-05 14:44 | 51.15239 | 1.58013 | 34285 ft | 422 kts | 97° |
| 2026-05-05 14:45 | 51.15003 | 1.62686 | 34611 ft | 426 kts | 97° |
| 2026-05-05 14:45 | 51.14766 | 1.67411 | 34938 ft | 430 kts | 96° |
| 2026-05-05 14:45 | 51.14528 | 1.72166 | 35287 ft | 432 kts | 97° |
| 2026-05-05 14:45 | 51.14287 | 1.76957 | 35628 ft | 435 kts | 97° |
| 2026-05-05 14:46 | 51.14042 | 1.81785 | 35941 ft | 439 kts | 96° |
| 2026-05-05 14:46 | 51.13793 | 1.86640 | 36262 ft | 442 kts | 96° |
| 2026-05-05 14:46 | 51.13542 | 1.91536 | 36525 ft | 446 kts | 97° |
| 2026-05-05 14:46 | 51.13286 | 1.96453 | 36825 ft | 448 kts | 96° |
| 2026-05-05 14:47 | 51.13026 | 2.01417 | 37155 ft | 451 kts | 97° |
| 2026-05-05 14:47 | 51.12760 | 2.06419 | 37391 ft | 455 kts | 97° |
| 2026-05-05 14:47 | 51.12491 | 2.11452 | 37679 ft | 457 kts | 97° |
| 2026-05-05 14:47 | 51.12219 | 2.16517 | 37955 ft | 460 kts | 97° |
| 2026-05-05 14:48 | 51.11943 | 2.21611 | 38198 ft | 464 kts | 96° |
| 2026-05-05 14:48 | 51.11663 | 2.26756 | 38301 ft | 470 kts | 96° |
| 2026-05-05 14:48 | 51.11377 | 2.31972 | 38405 ft | 475 kts | 97° |
| 2026-05-05 14:48 | 51.11086 | 2.37230 | 38568 ft | 479 kts | 97° |
| 2026-05-05 14:49 | 51.10490 | 2.47873 | 38750 ft | 487 kts | 97° |
| 2026-05-05 14:49 | 51.10187 | 2.53241 | 38909 ft | 489 kts | 97° |
| 2026-05-05 14:49 | 51.09879 | 2.58639 | 39098 ft | 489 kts | 97° |
| 2026-05-05 14:50 | 51.09518 | 2.63997 | 39380 ft | 487 kts | 100° |
| 2026-05-05 14:50 | 51.08863 | 2.69293 | 39502 ft | 487 kts | 107° |
| 2026-05-05 14:50 | 51.07931 | 2.74465 | 39657 ft | 488 kts | 108° |
| 2026-05-05 14:50 | 51.06964 | 2.79618 | 40007 ft | 484 kts | 108° |
| 2026-05-05 14:51 | 51.05999 | 2.84742 | 40282 ft | 483 kts | 108° |
| 2026-05-05 14:51 | 51.05040 | 2.89869 | 40436 ft | 485 kts | 108° |
| 2026-05-05 14:51 | 51.04085 | 2.95019 | 40554 ft | 487 kts | 108° |
| 2026-05-05 14:51 | 51.03132 | 3.00195 | 40685 ft | 489 kts | 108° |
| 2026-05-05 14:52 | 51.02177 | 3.05395 | 40791 ft | 491 kts | 108° |
| 2026-05-05 14:52 | 51.01219 | 3.10607 | 40846 ft | 493 kts | 108° |
| 2026-05-05 14:52 | 50.99283 | 3.21102 | 40886 ft | 495 kts | 108° |
| 2026-05-05 14:53 | 50.97341 | 3.31557 | 40877 ft | 494 kts | 108° |
| 2026-05-05 14:53 | 50.95392 | 3.41987 | 40881 ft | 492 kts | 108° |
| 2026-05-05 14:54 | 50.93439 | 3.52381 | 40882 ft | 491 kts | 108° |
| 2026-05-05 14:54 | 50.91483 | 3.62735 | 40882 ft | 490 kts | 108° |
| 2026-05-05 14:55 | 50.89501 | 3.73070 | 40883 ft | 490 kts | 109° |
| 2026-05-05 14:55 | 50.87499 | 3.83374 | 40882 ft | 490 kts | 109° |
| 2026-05-05 14:56 | 50.85486 | 3.93692 | 40886 ft | 490 kts | 109° |
| 2026-05-05 14:56 | 50.83468 | 4.03996 | 40887 ft | 491 kts | 109° |
| 2026-05-05 14:57 | 50.81444 | 4.14287 | 40890 ft | 491 kts | 109° |
| 2026-05-05 14:57 | 50.79405 | 4.24593 | 40884 ft | 491 kts | 109° |
| 2026-05-05 14:58 | 50.77360 | 4.34876 | 40889 ft | 491 kts | 109° |
| 2026-05-05 14:58 | 50.75304 | 4.45158 | 40887 ft | 491 kts | 109° |
| 2026-05-05 14:59 | 50.73245 | 4.55418 | 40883 ft | 490 kts | 109° |
| 2026-05-05 14:59 | 50.71197 | 4.65675 | 40889 ft | 490 kts | 109° |
| 2026-05-05 15:00 | 50.69547 | 4.74218 | 40896 ft | 489 kts | 109° |
| 2026-05-05 15:00 | 50.67220 | 4.86211 | 40890 ft | 489 kts | 109° |
| 2026-05-05 15:01 | 50.65194 | 4.96434 | 40878 ft | 488 kts | 110° |
| 2026-05-05 15:01 | 50.63104 | 5.06616 | 40877 ft | 488 kts | 110° |
| 2026-05-05 15:02 | 50.61006 | 5.16769 | 40875 ft | 487 kts | 110° |
| 2026-05-05 15:02 | 50.58910 | 5.26900 | 40873 ft | 487 kts | 110° |
| 2026-05-05 15:03 | 50.56811 | 5.37022 | 40873 ft | 487 kts | 110° |
| 2026-05-05 15:03 | 50.54701 | 5.47141 | 40868 ft | 487 kts | 110° |
| 2026-05-05 15:04 | 50.52583 | 5.57251 | 40866 ft | 487 kts | 110° |
| 2026-05-05 15:04 | 50.50502 | 5.67386 | 40864 ft | 488 kts | 109° |
| 2026-05-05 15:05 | 50.47752 | 5.82773 | 40857 ft | 488 kts | 108° |
| 2026-05-05 15:06 | 50.45924 | 5.93038 | 40864 ft | 488 kts | 108° |
| 2026-05-05 15:06 | 50.44056 | 6.03282 | 40838 ft | 488 kts | 108° |
| 2026-05-05 15:07 | 50.42169 | 6.13497 | 40847 ft | 487 kts | 108° |
| 2026-05-05 15:07 | 50.40274 | 6.23690 | 40840 ft | 487 kts | 109° |
| 2026-05-05 15:08 | 50.38374 | 6.33859 | 40832 ft | 486 kts | 109° |
| 2026-05-05 15:08 | 50.36465 | 6.44029 | 40829 ft | 487 kts | 109° |
| 2026-05-05 15:09 | 50.34541 | 6.54219 | 40821 ft | 489 kts | 109° |
| 2026-05-05 15:09 | 50.32604 | 6.64428 | 40810 ft | 489 kts | 109° |
| 2026-05-05 15:10 | 50.30663 | 6.74614 | 40817 ft | 486 kts | 109° |
| 2026-05-05 15:10 | 50.28726 | 6.84709 | 40840 ft | 484 kts | 109° |
| 2026-05-05 15:11 | 50.26784 | 6.94781 | 40816 ft | 484 kts | 109° |
| 2026-05-05 15:11 | 50.24831 | 7.04852 | 40817 ft | 485 kts | 110° |
| 2026-05-05 15:12 | 50.22865 | 7.14940 | 40839 ft | 486 kts | 110° |
| 2026-05-05 15:12 | 50.20887 | 7.25035 | 40835 ft | 487 kts | 110° |
| 2026-05-05 15:13 | 50.18894 | 7.35153 | 40831 ft | 488 kts | 110° |
| 2026-05-05 15:13 | 50.16891 | 7.45276 | 40825 ft | 488 kts | 110° |
| 2026-05-05 15:14 | 50.14880 | 7.55381 | 40834 ft | 488 kts | 110° |
| 2026-05-05 15:14 | 50.12855 | 7.65504 | 40831 ft | 489 kts | 110° |
| 2026-05-05 15:15 | 50.10836 | 7.75545 | 40836 ft | 490 kts | 110° |
| 2026-05-05 15:15 | 50.08800 | 7.85619 | 40825 ft | 489 kts | 110° |
| 2026-05-05 15:16 | 50.06748 | 7.95719 | 40862 ft | 489 kts | 110° |
| 2026-05-05 15:16 | 50.04682 | 8.05836 | 40835 ft | 491 kts | 110° |
| 2026-05-05 15:17 | 50.02619 | 8.15898 | 40858 ft | 489 kts | 110° |
| 2026-05-05 15:17 | 50.00540 | 8.25974 | 40830 ft | 488 kts | 111° |
| 2026-05-05 15:18 | 49.98464 | 8.35993 | 40844 ft | 486 kts | 111° |
| 2026-05-05 15:18 | 49.96384 | 8.45983 | 40839 ft | 486 kts | 111° |
| 2026-05-05 15:19 | 49.93933 | 8.55714 | 40839 ft | 483 kts | 121° |
| 2026-05-05 15:19 | 49.90601 | 8.64753 | 40833 ft | 483 kts | 123° |
| 2026-05-05 15:20 | 49.87200 | 8.73758 | 40836 ft | 483 kts | 123° |
| 2026-05-05 15:20 | 49.83835 | 8.82762 | 40825 ft | 482 kts | 123° |
| 2026-05-05 15:21 | 49.80490 | 8.91749 | 40834 ft | 482 kts | 123° |
| 2026-05-05 15:21 | 49.77155 | 9.00684 | 40836 ft | 481 kts | 123° |
| 2026-05-05 15:22 | 49.73789 | 9.09668 | 40835 ft | 485 kts | 123° |
| 2026-05-05 15:22 | 49.70533 | 9.18313 | 40825 ft | 487 kts | 123° |
| 2026-05-05 15:23 | 49.67516 | 9.26314 | 40828 ft | 485 kts | 123° |
| 2026-05-05 15:23 | 49.64698 | 9.33767 | 40824 ft | 483 kts | 123° |
| 2026-05-05 15:24 | 49.61164 | 9.42512 | 40833 ft | 478 kts | 130° |
| 2026-05-05 15:24 | 49.56882 | 9.50249 | 40824 ft | 473 kts | 135° |
| 2026-05-05 15:25 | 49.52509 | 9.57809 | 40857 ft | 474 kts | 135° |
| 2026-05-05 15:25 | 49.48145 | 9.65438 | 40862 ft | 475 kts | 134° |
| 2026-05-05 15:26 | 49.43772 | 9.73109 | 40851 ft | 477 kts | 134° |
| 2026-05-05 15:26 | 49.39390 | 9.80772 | 40850 ft | 478 kts | 134° |
| 2026-05-05 15:27 | 49.34980 | 9.88398 | 40834 ft | 479 kts | 135° |
| 2026-05-05 15:27 | 49.30526 | 9.96008 | 40866 ft | 479 kts | 135° |
| 2026-05-05 15:28 | 49.26064 | 10.03624 | 40856 ft | 480 kts | 135° |
| 2026-05-05 15:28 | 49.21601 | 10.11235 | 40853 ft | 480 kts | 135° |
| 2026-05-05 15:29 | 49.17151 | 10.18851 | 40854 ft | 480 kts | 135° |
| 2026-05-05 15:29 | 49.12713 | 10.26481 | 40850 ft | 479 kts | 136° |
| 2026-05-05 15:30 | 49.08119 | 10.33842 | 40853 ft | 478 kts | 137° |
| 2026-05-05 15:30 | 49.03521 | 10.41160 | 40851 ft | 477 kts | 137° |
| 2026-05-05 15:31 | 48.98943 | 10.48484 | 40860 ft | 477 kts | 137° |
| 2026-05-05 15:31 | 48.94321 | 10.55714 | 40859 ft | 476 kts | 137° |
| 2026-05-05 15:32 | 48.89739 | 10.63009 | 40847 ft | 477 kts | 137° |
| 2026-05-05 15:32 | 48.85170 | 10.70326 | 40863 ft | 477 kts | 137° |
| 2026-05-05 15:33 | 48.80613 | 10.77570 | 40827 ft | 479 kts | 137° |
| 2026-05-05 15:33 | 48.75977 | 10.84819 | 40826 ft | 478 kts | 138° |
| 2026-05-05 15:34 | 48.71336 | 10.92038 | 40809 ft | 478 kts | 137° |
| 2026-05-05 15:34 | 48.66705 | 10.99241 | 40804 ft | 478 kts | 137° |
| 2026-05-05 15:35 | 48.63749 | 11.03833 | 40806 ft | 478 kts | 137° |
| 2026-05-05 15:49 | 48.61354 | 11.07554 | 40766 ft | 467 kts | 138° |
| 2026-05-05 15:49 | 48.59116 | 11.11025 | 40697 ft | 455 kts | 138° |
| 2026-05-05 15:50 | 48.56898 | 11.14305 | 40604 ft | 438 kts | 146° |
| 2026-05-05 15:50 | 48.54345 | 11.16642 | 40302 ft | 422 kts | 163° |
| 2026-05-05 15:50 | 48.51563 | 11.17757 | 40002 ft | 409 kts | 177° |
| 2026-05-05 15:50 | 48.48763 | 11.17836 | 39746 ft | 398 kts | 187° |
| 2026-05-05 15:51 | 48.46048 | 11.17235 | 39454 ft | 390 kts | 197° |
| 2026-05-05 15:51 | 48.43520 | 11.15889 | 39172 ft | 382 kts | 209° |
| 2026-05-05 15:51 | 48.41326 | 11.13711 | 38892 ft | 376 kts | 222° |
| 2026-05-05 15:51 | 48.39582 | 11.10833 | 38609 ft | 371 kts | 234° |
| 2026-05-05 15:52 | 48.38328 | 11.07467 | 38297 ft | 368 kts | 246° |
| 2026-05-05 15:52 | 48.37572 | 11.03807 | 37959 ft | 367 kts | 257° |
| 2026-05-05 15:52 | 48.37323 | 10.99964 | 37623 ft | 373 kts | 268° |
| 2026-05-05 15:52 | 48.37613 | 10.96047 | 37315 ft | 382 kts | 278° |
| 2026-05-05 15:53 | 48.38373 | 10.92185 | 37026 ft | 389 kts | 287° |
| 2026-05-05 15:53 | 48.39581 | 10.88537 | 36682 ft | 396 kts | 301° |
| 2026-05-05 15:53 | 48.41435 | 10.85453 | 36373 ft | 398 kts | 310° |
| 2026-05-05 15:53 | 48.43397 | 10.82522 | 36113 ft | 397 kts | 310° |
| 2026-05-05 15:54 | 48.45344 | 10.79567 | 35798 ft | 397 kts | 309° |
| 2026-05-05 15:54 | 48.47272 | 10.76594 | 35498 ft | 396 kts | 309° |
| 2026-05-05 15:54 | 48.49184 | 10.73610 | 35189 ft | 395 kts | 308° |
| 2026-05-05 15:54 | 48.51088 | 10.70623 | 34914 ft | 394 kts | 308° |
| 2026-05-05 15:55 | 48.52984 | 10.67644 | 34633 ft | 393 kts | 308° |
| 2026-05-05 15:55 | 48.55012 | 10.64886 | 34310 ft | 396 kts | 323° |
| 2026-05-05 15:55 | 48.57490 | 10.63043 | 34028 ft | 401 kts | 338° |
| 2026-05-05 15:55 | 48.60213 | 10.62043 | 33732 ft | 404 kts | 351° |
| 2026-05-05 15:56 | 48.63014 | 10.61862 | 33400 ft | 404 kts | 4° |
| 2026-05-05 15:56 | 48.65776 | 10.62590 | 33061 ft | 403 kts | 18° |
| 2026-05-05 15:56 | 48.68330 | 10.64277 | 32751 ft | 399 kts | 34° |
| 2026-05-05 15:56 | 48.70507 | 10.66825 | 32454 ft | 393 kts | 49° |
| 2026-05-05 15:57 | 48.72194 | 10.70027 | 32142 ft | 387 kts | 63° |
| 2026-05-05 15:57 | 48.73351 | 10.73671 | 31724 ft | 383 kts | 76° |
| 2026-05-05 15:57 | 48.73940 | 10.77554 | 31279 ft | 375 kts | 89° |
| 2026-05-05 15:57 | 48.73960 | 10.81405 | 30863 ft | 367 kts | 102° |
| 2026-05-05 15:58 | 48.73450 | 10.85205 | 30448 ft | 361 kts | 111° |
| 2026-05-05 15:58 | 48.72613 | 10.88752 | 30046 ft | 356 kts | 118° |
| 2026-05-05 15:58 | 48.71396 | 10.91970 | 29565 ft | 349 kts | 134° |
| 2026-05-05 15:58 | 48.69759 | 10.94542 | 29069 ft | 341 kts | 139° |
| 2026-05-05 15:59 | 48.68084 | 10.97082 | 28604 ft | 340 kts | 138° |
| 2026-05-05 15:59 | 48.66407 | 10.99662 | 28138 ft | 339 kts | 137° |
| 2026-05-05 15:59 | 48.64760 | 11.02214 | 27687 ft | 338 kts | 137° |
| 2026-05-05 15:59 | 48.63142 | 11.04734 | 27242 ft | 338 kts | 137° |
| 2026-05-05 16:00 | 48.61508 | 11.07280 | 26813 ft | 337 kts | 137° |
| 2026-05-05 16:00 | 48.59876 | 11.09822 | 26375 ft | 337 kts | 137° |
| 2026-05-05 16:00 | 48.58247 | 11.12357 | 25949 ft | 336 kts | 137° |
| 2026-05-05 16:00 | 48.56500 | 11.14607 | 25502 ft | 327 kts | 154° |
| 2026-05-05 16:01 | 48.54381 | 11.15711 | 25097 ft | 321 kts | 173° |
| 2026-05-05 16:01 | 48.52159 | 11.15679 | 24655 ft | 321 kts | 191° |
| 2026-05-05 16:01 | 48.50043 | 11.14624 | 24210 ft | 323 kts | 207° |
| 2026-05-05 16:01 | 48.48229 | 11.12603 | 23755 ft | 328 kts | 225° |
| 2026-05-05 16:02 | 48.46943 | 11.09743 | 23280 ft | 335 kts | 244° |
| 2026-05-05 16:02 | 48.46382 | 11.06310 | 22744 ft | 344 kts | 264° |
| 2026-05-05 16:02 | 48.46668 | 11.02697 | 22217 ft | 353 kts | 283° |
| 2026-05-05 16:02 | 48.47735 | 10.99348 | 21697 ft | 361 kts | 304° |
| 2026-05-05 16:03 | 48.48273 | 10.98372 | 21502 ft | 360 kts | 309° |
| 2026-05-05 16:03 | 48.48776 | 10.97575 | 21362 ft | 361 kts | 311° |
| 2026-05-05 16:06 | 48.49311 | 10.96765 | 21226 ft | 360 kts | 311° |
| 2026-05-05 16:06 | 48.50518 | 10.94957 | 20893 ft | 361 kts | 312° |
| 2026-05-05 16:06 | 48.52274 | 10.92310 | 20382 ft | 362 kts | 311° |
| 2026-05-05 16:07 | 48.54029 | 10.89612 | 19907 ft | 363 kts | 311° |
| 2026-05-05 16:07 | 48.55785 | 10.86872 | 19442 ft | 364 kts | 311° |
| 2026-05-05 16:07 | 48.57531 | 10.84153 | 18962 ft | 361 kts | 313° |
| 2026-05-05 16:07 | 48.59612 | 10.82053 | 18449 ft | 365 kts | 337° |
| 2026-05-05 16:08 | 48.62119 | 10.81402 | 17983 ft | 369 kts | 1° |
| 2026-05-05 16:08 | 48.64617 | 10.82219 | 17461 ft | 371 kts | 23° |
| 2026-05-05 16:08 | 48.66763 | 10.84348 | 16931 ft | 369 kts | 46° |
| 2026-05-05 16:08 | 48.68233 | 10.87483 | 16421 ft | 366 kts | 69° |
| 2026-05-05 16:09 | 48.68824 | 10.91170 | 15900 ft | 359 kts | 91° |
| 2026-05-05 16:09 | 48.68483 | 10.94851 | 15412 ft | 352 kts | 112° |
| 2026-05-05 16:09 | 48.67399 | 10.98103 | 14923 ft | 344 kts | 130° |
| 2026-05-05 16:09 | 48.65802 | 11.00761 | 14457 ft | 340 kts | 138° |
| 2026-05-05 16:10 | 48.64128 | 11.03289 | 13983 ft | 340 kts | 138° |
| 2026-05-05 16:10 | 48.62457 | 11.05827 | 13489 ft | 340 kts | 138° |
| 2026-05-05 16:10 | 48.60803 | 11.08377 | 13007 ft | 340 kts | 137° |
| 2026-05-05 16:10 | 48.59176 | 11.10910 | 12815 ft | 330 kts | 137° |
| 2026-05-05 16:11 | 48.57617 | 11.13322 | 12790 ft | 310 kts | 141° |
| 2026-05-05 16:11 | 48.52627 | 11.19181 | 12802 ft | 315 kts | 126° |
| 2026-05-05 16:12 | 48.51872 | 11.22321 | 12779 ft | 329 kts | 98° |
| 2026-05-05 16:12 | 48.52605 | 11.29288 | 12309 ft | 333 kts | 79° |
| 2026-05-05 16:13 | 48.54113 | 11.39356 | 11522 ft | 320 kts | 80° |
| 2026-05-05 16:13 | 48.54590 | 11.42630 | 11272 ft | 319 kts | 80° |
| 2026-05-05 16:13 | 48.55060 | 11.45899 | 11023 ft | 317 kts | 80° |
| 2026-05-05 16:14 | 48.56039 | 11.52371 | 10531 ft | 316 kts | 78° |
| 2026-05-05 16:14 | 48.57110 | 11.58747 | 10037 ft | 305 kts | 78° |
| 2026-05-05 16:15 | 48.58132 | 11.64679 | 9523 ft | 288 kts | 78° |
| 2026-05-05 16:15 | 48.59148 | 11.70558 | 9006 ft | 289 kts | 77° |
| 2026-05-05 16:16 | 48.60247 | 11.76344 | 8481 ft | 284 kts | 75° |
| 2026-05-05 16:16 | 48.61395 | 11.82043 | 7984 ft | 282 kts | 76° |
| 2026-05-05 16:17 | 48.62505 | 11.87761 | 7515 ft | 284 kts | 75° |
| 2026-05-05 16:17 | 48.63056 | 11.90691 | 7314 ft | 288 kts | 75° |
| 2026-05-05 16:18 | 48.64161 | 11.96537 | 6733 ft | 287 kts | 75° |
| 2026-05-05 16:18 | 48.64684 | 11.99382 | 6495 ft | 283 kts | 75° |
| 2026-05-05 16:18 | 48.65707 | 12.05098 | 6004 ft | 277 kts | 75° |
| 2026-05-05 16:19 | 48.66204 | 12.07929 | 5747 ft | 265 kts | 75° |
| 2026-05-05 16:19 | 48.66646 | 12.10487 | 5503 ft | 258 kts | 75° |
| 2026-05-05 16:19 | 48.67557 | 12.15758 | 4983 ft | 254 kts | 76° |
| 2026-05-05 16:20 | 48.68411 | 12.20807 | 4933 ft | 254 kts | 75° |
| 2026-05-05 16:20 | 48.69118 | 12.26311 | 4925 ft | 271 kts | 96° |
| 2026-05-05 16:21 | 48.67218 | 12.30888 | 4912 ft | 259 kts | 156° |
| 2026-05-05 16:22 | 48.62410 | 12.29519 | 4924 ft | 252 kts | 216° |
| 2026-05-05 16:22 | 48.59712 | 12.26513 | 4902 ft | 233 kts | 218° |
| 2026-05-05 16:23 | 48.57152 | 12.23619 | 4905 ft | 226 kts | 218° |
| 2026-05-05 16:23 | 48.55902 | 12.22213 | 4904 ft | 222 kts | 218° |
| 2026-05-05 16:23 | 48.53351 | 12.19354 | 4930 ft | 230 kts | 219° |
| 2026-05-05 16:24 | 48.52017 | 12.17873 | 4958 ft | 242 kts | 219° |
| 2026-05-05 16:24 | 48.50659 | 12.16362 | 4963 ft | 242 kts | 218° |
| 2026-05-05 16:24 | 48.47975 | 12.13385 | 4952 ft | 237 kts | 219° |
| 2026-05-05 16:25 | 48.46636 | 12.11902 | 4955 ft | 242 kts | 219° |
| 2026-05-05 16:25 | 48.43959 | 12.08946 | 4635 ft | 239 kts | 219° |
| 2026-05-05 16:25 | 48.42620 | 12.07467 | 4373 ft | 237 kts | 219° |
| 2026-05-05 16:26 | 48.40063 | 12.04648 | 4092 ft | 211 kts | 219° |
| 2026-05-05 16:26 | 48.37786 | 12.02146 | 3991 ft | 205 kts | 220° |
| 2026-05-05 16:27 | 48.36693 | 12.00885 | 3926 ft | 185 kts | 231° |
| 2026-05-05 16:27 | 48.36183 | 11.99248 | 3963 ft | 167 kts | 262° |
| 2026-05-05 16:27 | 48.35942 | 11.97507 | 3731 ft | 169 kts | 260° |
| 2026-05-05 16:27 | 48.35700 | 11.95829 | 3501 ft | 157 kts | 263° |
| 2026-05-05 16:28 | 48.35549 | 11.94248 | 3340 ft | 151 kts | 265° |
| 2026-05-05 16:28 | 48.35423 | 11.92707 | 3147 ft | 145 kts | 265° |
| 2026-05-05 16:28 | 48.35306 | 11.91205 | 2941 ft | 145 kts | 268° |
| 2026-05-05 16:28 | 48.35190 | 11.89686 | 2740 ft | 144 kts | 268° |
| 2026-05-05 16:29 | 48.35076 | 11.88192 | 2553 ft | 147 kts | 267° |
| 2026-05-05 16:29 | 48.34960 | 11.86695 | 2349 ft | 140 kts | 267° |
| 2026-05-05 16:29 | 48.34848 | 11.85235 | 2153 ft | 142 kts | 265° |
| 2026-05-05 16:29 | 48.34733 | 11.83743 | 1956 ft | 145 kts | 263° |
| 2026-05-05 16:30 | 48.34617 | 11.82229 | 1762 ft | 147 kts | 263° |
| 2026-05-05 16:30 | 48.34499 | 11.80692 | 1566 ft | 149 kts | 262° |
| 2026-05-05 16:30 | 48.34373 | 11.79150 | 1468 ft | 137 kts | 263° |
| 2026-05-05 16:30 | 48.34279 | 11.77940 | 1475 ft | 95 kts | 264° |
| 2026-05-05 16:31 | 48.34224 | 11.77173 | 1466 ft | 57 kts | 263° |
| 2026-05-05 16:31 | 48.34183 | 11.76617 | 1473 ft | 47 kts | 270° |
| 2026-05-05 16:31 | 48.34263 | 11.76206 | 1467 ft | 29 kts | 293° |
| 2026-05-05 16:31 | 48.34338 | 11.75940 | 1465 ft | 13 kts | 294° |
| 2026-05-05 16:32 | 48.34404 | 11.75793 | 1459 ft | 19 kts | 333° |